Enter the Airport ICAO Code

Search by Airport or City

Current Weather

KMCO | Orlando International Airport

Orlando, Florida, United States

Last Update 54 Minutes Ago

Clear Sky at Low Altitude

Temperature of 11 ºC

Moderate Winds from North

Temperature

11 ºC

Dew Point Temperature

09 ºC

Relative Humidity

87.52 %

Wind Direction

North (010º, Without Significant Variations)

Wind Velocity

19 km/h (10 kt)

Gusts

None

Visibility

Greater than 10 Miles

Sea Level Pressure

30.45 inHg (Inches of Mercury)

Layers of Clouds

None

METAR KMCO 090953Z 01010KT 10SM CLR 11/09 A3045 RMK AO2 SLP310 T01110094

Weather Forecast

KMCO | Orlando International Airport

Orlando, Florida, United States

Forecast valid for the next 25 Hours

From now on it is expected:

Clear Sky

Light to Moderate Winds from North

In 5 hours it is expected the begining of:

Sky with Few Clouds

Moderate Winds from East

In 13 hours it is expected the begining of:

Clear Sky

Light Winds from NorthEast

Maximum Temperature

No Data

Minimum Temperature

No Data

TAF KMCO 090901Z 0909/1012 36009KT P6SM SKC FM091600 07011KT P6SM FEW050 FM100000 04003KT P6SM SKC